Big Bear Station Historical Data
Daily Summary for April 17, 2019 Units:  English    Metric   Both
Next Day »
Daily Weekly Monthly Yearly Custom
  High: Low: Average:
Temperature: 67.3 °F 34.2 °F 47.9 °F
Dew Point: 32.9 °F 12.1 °F 25.2 °F
Humidity: 86% 13% 47%
Wind Speed: 8.3mph 0.0mph 3.2mph
Wind Gust: -999.0mph - -
Wind- - WSW
Pressure: 23.66 in 23.48 in -
Precipitation: 0.00 in    
Historical Graphs
 
 
Tabular Data for April 17, 2019
Time Temperature Dew Point Pressure Wind Wind Speed Wind Gust Humidity Rainfall Rate (Hourly)
00:07 34.2 °F 30.5 °F 23.48 in Calm   -999.0 mph 86% 0.00 in
00:23 34.5 °F 30.5 °F 23.49 in Calm   -999.0 mph 85% 0.00 in
00:39 34.3 °F 30.3 °F 23.49 in South 1.7 mph -999.0 mph 85% 0.00 in
00:54 36.0 °F 31.0 °F 23.50 in Calm   -999.0 mph 82% 0.00 in
01:09 37.0 °F 31.4 °F 23.50 in NNW 2.2 mph -999.0 mph 80% 0.00 in
01:24 37.4 °F 31.8 °F 23.50 in NNW 3.2 mph -999.0 mph 80% 0.00 in
01:40 37.6 °F 32.9 °F 23.50 in NNE 3.7 mph -999.0 mph 83% 0.00 in
01:55 37.4 °F 32.7 °F 23.50 in NNE 2.2 mph -999.0 mph 83% 0.00 in
02:10 37.6 °F 32.9 °F 23.50 in NNW 3.7 mph -999.0 mph 83% 0.00 in
02:25 37.9 °F 32.6 °F 23.50 in North 4.7 mph -999.0 mph 81% 0.00 in
02:41 38.1 °F 32.2 °F 23.50 in NNW 5.3 mph -999.0 mph 79% 0.00 in
02:56 37.9 °F 32.0 °F 23.49 in NNW 6.3 mph -999.0 mph 79% 0.00 in
03:11 38.1 °F 31.5 °F 23.50 in NW 4.7 mph -999.0 mph 77% 0.00 in
03:26 38.1 °F 31.5 °F 23.49 in North 5.3 mph -999.0 mph 77% 0.00 in
03:42 38.1 °F 31.5 °F 23.49 in NNE 5.3 mph -999.0 mph 77% 0.00 in
03:57 38.3 °F 30.7 °F 23.49 in NW 6.3 mph -999.0 mph 74% 0.00 in
04:13 38.1 °F 30.5 °F 23.50 in NW 7.3 mph -999.0 mph 74% 0.00 in
04:28 38.3 °F 30.1 °F 23.50 in NNE 5.3 mph -999.0 mph 72% 0.00 in
04:43 38.3 °F 29.7 °F 23.49 in NNW 6.8 mph -999.0 mph 71% 0.00 in
04:59 38.8 °F 29.1 °F 23.50 in North 6.8 mph -999.0 mph 68% 0.00 in
05:15 38.7 °F 27.9 °F 23.50 in NW 8.3 mph -999.0 mph 65% 0.00 in
05:30 38.8 °F 27.7 °F 23.51 in NNW 5.8 mph -999.0 mph 64% 0.00 in
05:45 39.0 °F 28.6 °F 23.50 in NNW 4.2 mph -999.0 mph 66% 0.00 in
06:01 38.8 °F 28.0 °F 23.51 in NW 6.8 mph -999.0 mph 65% 0.00 in
06:17 38.8 °F 27.7 °F 23.52 in NNW 4.7 mph -999.0 mph 64% 0.00 in
06:32 38.8 °F 27.7 °F 23.52 in NW 5.3 mph -999.0 mph 64% 0.00 in
06:47 39.0 °F 27.9 °F 23.52 in SSW 6.3 mph -999.0 mph 64% 0.00 in
07:02 39.4 °F 27.5 °F 23.53 in NW 7.3 mph -999.0 mph 62% 0.00 in
07:18 39.7 °F 27.7 °F 23.54 in North 1.7 mph -999.0 mph 62% 0.00 in
07:33 39.7 °F 26.9 °F 23.54 in SW 3.2 mph -999.0 mph 60% 0.00 in
07:48 39.9 °F 26.3 °F 23.55 in NNE 1.7 mph -999.0 mph 58% 0.00 in
08:03 40.1 °F 25.7 °F 23.55 in ESE 3.2 mph -999.0 mph 56% 0.00 in
08:19 40.8 °F 26.3 °F 23.56 in SSE 3.2 mph -999.0 mph 56% 0.00 in
08:34 42.1 °F 25.7 °F 23.57 in SSE 4.7 mph -999.0 mph 52% 0.00 in
08:49 43.3 °F 25.4 °F 23.57 in NW 3.2 mph -999.0 mph 49% 0.00 in
09:04 44.2 °F 25.2 °F 23.58 in NW 1.7 mph -999.0 mph 47% 0.00 in
09:20 44.8 °F 25.3 °F 23.58 in NE 2.7 mph -999.0 mph 46% 0.00 in
09:35 45.3 °F 24.7 °F 23.59 in NNW 5.3 mph -999.0 mph 44% 0.00 in
09:51 46.4 °F 26.7 °F 23.59 in North 2.2 mph -999.0 mph 46% 0.00 in
10:06 46.8 °F 25.5 °F 23.59 in NW 6.3 mph -999.0 mph 43% 0.00 in
10:21 47.5 °F 24.4 °F 23.59 in NNW 2.2 mph -999.0 mph 40% 0.00 in
10:37 49.1 °F 26.4 °F 23.60 in NNW 6.3 mph -999.0 mph 41% 0.00 in
10:52 50.4 °F 25.7 °F 23.60 in NE 4.2 mph -999.0 mph 38% 0.00 in
11:07 52.3 °F 24.0 °F 23.60 in NNW 6.3 mph -999.0 mph 33% 0.00 in
11:22 53.2 °F 24.1 °F 23.61 in NNW 4.2 mph -999.0 mph 32% 0.00 in
11:37 54.9 °F 24.0 °F 23.61 in West 3.2 mph -999.0 mph 30% 0.00 in
11:53 55.8 °F 23.2 °F 23.61 in WNW 4.2 mph -999.0 mph 28% 0.00 in
12:08 55.8 °F 20.5 °F 23.62 in SE 1.1 mph -999.0 mph 25% 0.00 in
12:23 57.6 °F 21.0 °F 23.61 in NNW 5.8 mph -999.0 mph 24% 0.00 in
12:38 57.9 °F 22.3 °F 23.61 in North 5.3 mph -999.0 mph 25% 0.00 in
12:54 57.7 °F 20.1 °F 23.61 in NNW 4.7 mph -999.0 mph 23% 0.00 in
13:09 59.9 °F 20.9 °F 23.61 in NE 3.2 mph -999.0 mph 22% 0.00 in
13:24 60.6 °F 19.3 °F 23.61 in NW 3.2 mph -999.0 mph 20% 0.00 in
13:40 61.2 °F 19.8 °F 23.61 in NW 4.2 mph -999.0 mph 20% 0.00 in
13:55 64.0 °F 22.1 °F 23.60 in NNW 3.7 mph -999.0 mph 20% 0.00 in
14:11 64.8 °F 21.5 °F 23.60 in North 2.7 mph -999.0 mph 19% 0.00 in
14:26 62.8 °F 17.3 °F 23.60 in NE 1.1 mph -999.0 mph 17% 0.00 in
14:41 65.1 °F 16.3 °F 23.60 in NNE 2.2 mph -999.0 mph 15% 0.00 in
14:56 65.3 °F 19.3 °F 23.60 in NE 3.7 mph -999.0 mph 17% 0.00 in
15:11 64.2 °F 15.5 °F 23.60 in NNW 5.8 mph -999.0 mph 15% 0.00 in
15:27 63.0 °F 16.1 °F 23.60 in NNW 4.7 mph -999.0 mph 16% 0.00 in
15:42 63.9 °F 22.0 °F 23.60 in North 5.3 mph -999.0 mph 20% 0.00 in
15:57 63.1 °F 18.9 °F 23.60 in NNE 2.7 mph -999.0 mph 18% 0.00 in
16:12 63.3 °F 21.5 °F 23.60 in NNW 4.2 mph -999.0 mph 20% 0.00 in
16:27 63.1 °F 16.1 °F 23.60 in NNW 3.7 mph -999.0 mph 16% 0.00 in
16:43 64.0 °F 12.1 °F 23.59 in North 3.7 mph -999.0 mph 13% 0.00 in
16:58 67.3 °F 14.7 °F 23.60 in Calm   -999.0 mph 13% 0.00 in
17:14 66.6 °F 25.4 °F 23.59 in NW 2.7 mph -999.0 mph 21% 0.00 in
17:29 66.4 °F 20.2 °F 23.59 in NW 4.2 mph -999.0 mph 17% 0.00 in
17:44 64.9 °F 22.8 °F 23.59 in NW 5.3 mph -999.0 mph 20% 0.00 in
18:00 64.0 °F 24.4 °F 23.59 in NW 4.2 mph -999.0 mph 22% 0.00 in
18:15 62.1 °F 22.8 °F 23.60 in NW 4.2 mph -999.0 mph 22% 0.00 in
18:30 60.1 °F 24.1 °F 23.61 in NW 4.2 mph -999.0 mph 25% 0.00 in
18:45 55.6 °F 24.6 °F 23.61 in NNE 1.7 mph -999.0 mph 30% 0.00 in
19:00 53.8 °F 23.8 °F 23.61 in NW 3.2 mph -999.0 mph 31% 0.00 in
19:16 52.5 °F 25.6 °F 23.62 in Calm   -999.0 mph 35% 0.00 in
19:31 51.1 °F 25.7 °F 23.62 in Calm   -999.0 mph 37% 0.00 in
19:46 49.6 °F 24.4 °F 23.62 in Calm   -999.0 mph 37% 0.00 in
20:01 48.4 °F 23.9 °F 23.62 in Calm   -999.0 mph 38% 0.00 in
20:16 46.9 °F 25.0 °F 23.63 in Calm   -999.0 mph 42% 0.00 in
20:32 45.9 °F 23.5 °F 23.63 in Calm   -999.0 mph 41% 0.00 in
20:47 44.8 °F 23.1 °F 23.64 in Calm   -999.0 mph 42% 0.00 in
21:02 44.4 °F 26.9 °F 23.64 in Calm   -999.0 mph 50% 0.00 in
21:17 44.1 °F 25.6 °F 23.65 in Calm   -999.0 mph 48% 0.00 in
21:32 43.3 °F 25.9 °F 23.66 in Calm   -999.0 mph 50% 0.00 in
21:48 42.3 °F 25.4 °F 23.66 in Calm   -999.0 mph 51% 0.00 in
22:03 41.5 °F 24.7 °F 23.66 in Calm   -999.0 mph 51% 0.00 in
22:18 41.2 °F 25.8 °F 23.66 in Calm   -999.0 mph 54% 0.00 in
22:33 40.6 °F 24.8 °F 23.66 in Calm   -999.0 mph 53% 0.00 in
22:49 39.7 °F 24.8 °F 23.66 in Calm   -999.0 mph 55% 0.00 in
23:04 39.4 °F 23.2 °F 23.66 in Calm   -999.0 mph 52% 0.00 in
23:19 39.6 °F 25.6 °F 23.66 in SSE 2.2 mph -999.0 mph 57% 0.00 in
23:34 39.2 °F 25.7 °F 23.66 in Calm   -999.0 mph 58% 0.00 in
23:49 39.7 °F 24.4 °F 23.66 in SSE 2.2 mph -999.0 mph 54% 0.00 in
Big Bear CA Weather